G Wood, Mississippi
Current Conditions -  °F | °C
As of 5:53 PM on Friday 28 Nov 2014 (Local Time) from KGWO Reporting Station
Clear Clear  
Wind Chill: 44°   Ceiling: Unl
Heat Index: 48°   Visibility: 10mi
Dew Point: 26°   Wind: 8mph
Humidity: 42%   Direction: 170°S
Pressure: 30.21"   Gusts: NA
Location:  33.5163°N, 90.1795°W
Report Text: KGWO 282353Z AUTO 17007KT 10SM CLR 09/M03 A3021 RMK AO2 SLP229 T00891033 10156 20083 56010 TSNO
Loading
Personal Weather Stations






























Interactive Weather Map New forecast layout! Learn more

10-Day Weather Forecast

Advertisements
Track Severe Weather on mobile